Mark Howard

Olheiro-Chefe - Portland Timbers
3 Abr 2027
Sábado
Processo

Personalidade

Adaptabilidade (2) Ambição (16) Controvérsia (3) Lealdade (9) Pressão (10) Profissionalismo (16) Espírito Esportivo (11) Temperamento (1)

Perfil

Estilo de Treinamento Democrático
Licença Continental C
Determinação 7
Gestão de Pessoas 4
Motivação 13
Disciplina 4
Satisfação no Trabalho
50%
Fadiga
0%
Função Olheiro-Chefe
Salário 71.2K p/s
Contrato 14.03.2028

Desempenho

Comportamento Normal
Eficácia do Treinamento
16%
Desenvolvimento do Jogador
35%
Prevenção de Lesões
40%
Implementação Tática
20%

Eventos Recentes

Avaliou um jogador agora
Participou de uma reunião de recrutamento agora
Avaliou um jogador 7d atrás
Participou de uma reunião de recrutamento 7d atrás
Participou de uma reunião de recrutamento 7d atrás
Apresentou um dossiê à direção 7d atrás
Participou de uma reunião de recrutamento 14d atrás
Avaliou um jogador 14d atrás

Monitorando agora

229
Jogador Clube Status Habilidade Confiança Observado Última observação Último voto
Favour Bala Plateau United Ativo 92 / 105 40% 2 29.03.2027 -
Will Murdock Manchester United Ativo 92 / 90 40% 2 29.03.2027 -
Gonçalo Ribeiro Porto Ativo 95 / 98 40% 1 29.03.2027 -
John Okoye Ebuka Ittihad Perdido 114 / 118 40% 3 22.03.2027 -
Karlan Grant West Bromwich Albion Perdido 126 / 128 40% 2 22.03.2027 -
Fábio Carvalho Brentford Perdido 137 / 143 40% 1 22.03.2027 -
Fuzy Taylor Medeama Ativo 87 / 91 40% 1 16.03.2027 -
Dylan Lawlor Cardiff City Ativo 114 / 116 40% 1 16.03.2027 -
Hlompho Mokoena SuperSport United Ativo 106 / 100 40% 1 16.03.2027 -
Mamour N'Diaye Sarpsborg 08 Ativo 107 / 128 40% 3 10.03.2027 -
Theo Avery Northampton Town Ativo 89 / 91 40% 2 10.03.2027 -
Luca Martelli Forli Ativo 85 / 99 40% 4 10.03.2027 -
Facundo Quintana Defensa y Justicia Ativo 107 / 113 40% 1 09.03.2027 -
Emi Ochoa Real Sociedad Ativo 113 / 119 40% 1 09.03.2027 -
Dylan Moody Southampton Ativo 103 / 105 40% 1 08.03.2027 -
Jakub Przewoźny Millwall Ativo 80 / 84 40% 1 08.03.2027 -
Pierce Charles Manchester City Ativo 118 / 120 40% 3 06.03.2027 -
Joe Wallis PWD Bamenda Ativo 74 / 91 40% 2 06.03.2027 -
True Grant Stoke City Ativo 85 / 86 40% 4 05.03.2027 -
Tommy Conway Middlesbrough Perdido 124 / 122 40% 2 01.03.2027 -
Yoane Wissa Newcastle United Perdido 139 / 148 40% 1 01.03.2027 -
Armando Broja Burnley Perdido 138 / 133 40% 1 01.03.2027 -
Jake Girdwood-Reich St. Louis CITY SC Perdido 102 / 108 76% 1 22.02.2027 Aprovar
Elijah Adebayo Luton Town Ativo 125 / 121 40% 4 13.02.2027 -
Patson Daka Leicester City Ativo 121 / 129 40% 3 13.02.2027 -
Callan McKenna Bournemouth Ativo 89 / 93 40% 3 12.02.2027 -
Freddy Bernal Chelsea Ativo 80 / 95 40% 2 12.02.2027 -
Josh Coburn Millwall Ativo 123 / 126 40% 7 12.02.2027 -
Uriel Ramos Defensa y Justicia Ativo 87 / 89 40% 1 12.02.2027 -
Iqraam Rayners Mamelodi Sundowns Perdido 131 / 129 40% 9 10.02.2027 -
Salah Mohsen El Masry Ativo 109 / 104 40% 1 10.02.2027 -
Taiwo Awoniyi Coventry City Perdido 135 / 144 40% 1 10.02.2027 -
Mateo Raschia Unión de Santa Fe Ativo 94 / 89 40% 2 09.02.2027 -
Daniel Godwin Niger Tornadoes Ativo 75 / 74 40% 5 09.02.2027 -
Evidence Makgopa Orlando Pirates Ativo 119 / 101 40% 3 09.02.2027 -
Dany Mota Monza Perdido 136 / 134 40% 2 09.02.2027 -
Jonathan Macaulay Petrolul Ativo 75 / 90 40% 1 09.02.2027 -
Everton Bala Levski Perdido 125 / 131 40% 6 08.02.2027 -
Sam Greenwood Bristol City Ativo 126 / 123 40% 1 08.02.2027 -
Rumarn Burrell Queens Park Rangers Ativo 128 / 121 40% 1 08.02.2027 -
Luis Vázquez Birmingham Ativo 125 / 124 40% 2 06.02.2027 -
Žan Vipotnik Swansea City Ativo 123 / 129 40% 1 06.02.2027 -
Emil Riis Bristol City Ativo 122 / 121 40% 6 05.02.2027 -
Dom Ballard Leyton Orient Ativo 122 / 133 40% 3 05.02.2027 -
Keagan Mothiba SuperSport United Ativo 124 / 102 40% 6 04.02.2027 -
Richard Koné Queens Park Rangers Ativo 122 / 123 40% 4 04.02.2027 -
Jack Kortkamp Sporting Kansas City Ativo 93 / 112 40% 3 03.02.2027 -
Luke Campbell Sorrento Ativo 90 / 85 40% 3 03.02.2027 -
Yousef Salech Cardiff City Ativo 131 / 117 40% 2 03.02.2027 -
Bokamoso Taukobong Remo Stars Ativo 70 / 99 40% 1 03.02.2027 -
Will Lankshear Middlesbrough Perdido 124 / 135 40% 1 03.02.2027 -
Percy Erasmus SuperSport United Perdido 129 / 122 40% 13 02.02.2027 -
Bertrand Traoré Sunderland Ativo 133 / 128 40% 4 02.02.2027 -
Hwang Hee-Chan Wolverhampton Perdido 131 / 131 40% 1 02.02.2027 -
Kyle Wootton Stockport County Ativo 124 / 124 40% 1 30.01.2027 -
Kornel Miściur Liverpool Ativo 95 / 92 40% 3 29.01.2027 -
Toby Steward Portsmouth Ativo 113 / 119 40% 1 29.01.2027 -
Carey Bloedorn Peterborough United Ativo 87 / 92 40% 1 29.01.2027 -
Jovon Makama Norwich City Ativo 123 / 129 40% 3 27.01.2027 -
Aune Heggebø West Bromwich Albion Ativo 122 / 127 40% 2 27.01.2027 -
Abu Kamara Portsmouth Ativo 112 / 127 40% 2 26.01.2027 -
Yuki Ohashi Blackburn Rovers Ativo 118 / 126 40% 2 26.01.2027 -
Caleb Yirenkyi Coventry City Ativo 132 / 140 40% 2 26.01.2027 -
Mpho Khethang AS Police Ativo 84 / 77 40% 1 26.01.2027 -
Daniel Banjaqui Benfica Ativo 107 / 117 40% 1 26.01.2027 -
Lyle Foster Burnley Ativo 132 / 118 40% 1 25.01.2027 -
Morgan Whittaker Middlesbrough Ativo 135 / 136 40% 1 23.01.2027 -
Naphtali Mokoena Bloemfontein Celtic Ativo 98 / 102 40% 4 22.01.2027 -
Jean-Luc Morin Tours Ativo 140 / 149 40% 2 22.01.2027 -
Marezi Portsmouth Ativo 120 / 132 40% 1 22.01.2027 -
Edwin Asamoah Berekum Chelsea Ativo 86 / 77 40% 1 22.01.2027 -
Riley Owen Pergolettese Ativo 99 / 113 40% 1 22.01.2027 -
Mathias Jørgensen Blackburn Rovers Ativo 120 / 123 40% 1 20.01.2027 -
Juan Manuel Centurión Independiente Ativo 86 / 103 40% 1 19.01.2027 -
Santino Barbi Talleres Ativo 108 / 127 40% 1 19.01.2027 -
Callum Lang Preston Ativo 120 / 111 40% 1 17.01.2027 -
Lukas Nmecha Leeds United Ativo 128 / 139 40% 1 17.01.2027 -
Joe Gelhardt Hull City Ativo 130 / 122 40% 1 17.01.2027 -
Oscar Destiny Young Boys Ativo 83 / 81 40% 4 16.01.2027 -
Cameron Byrne-Hughes Manchester United Ativo 81 / 93 40% 2 16.01.2027 -
Emmanuel Boateng Hapoel Tel Aviv Ativo 117 / 106 40% 3 14.01.2027 -
Lorent Tolaj Plymouth Argyle Ativo 126 / 111 40% 1 14.01.2027 -
Carlton Morris Derby County Ativo 126 / 115 40% 1 12.01.2027 -
Ross Stewart Southampton Ativo 125 / 131 40% 1 12.01.2027 -
Antti Pukki SJK Ativo 78 / 88 40% 1 12.01.2027 -
Tony Springett Cheltenham Town Ativo 102 / 96 40% 1 12.01.2027 -
Marcelo Allende Mamelodi Sundowns Ativo 127 / 130 40% 1 12.01.2027 -
Gift Zwane Platinum Stars Ativo 116 / 121 40% 1 12.01.2027 -
Nicholas Michalski Blackburn Rovers Ativo 86 / 90 40% 1 10.01.2027 -
Harry French Crawley Town Ativo 81 / 77 40% 1 09.01.2027 -
Giovanni Stellato Guidonia Montecelio Ativo 86 / 83 40% 1 09.01.2027 -
Owen Asemota Aston Villa Ativo 81 / 80 40% 1 09.01.2027 -
Maxim Shichanin Zenit Ativo 86 / 94 40% 2 08.01.2027 -
Stav Toriel Hapoel Tel Aviv Ativo 139 / 127 40% 1 03.01.2027 -
Gian Piaggio Colón Ativo 87 / 93 40% 1 02.01.2027 -
Tyreece Campbell Charlton Athletic Ativo 120 / 119 40% 2 31.12.2026 -
Edoardo Motta Lazio Ativo 124 / 120 40% 1 30.12.2026 -
Keehan Willows Burton Albion Ativo 87 / 85 40% 1 30.12.2026 -
Aidomo Emakhu Oxford United Ativo 115 / 120 40% 2 26.12.2026 -
Mihailo Ivanović Millwall Ativo 126 / 116 40% 2 26.12.2026 -
Mathias Kvistgaarden Norwich City Ativo 118 / 119 40% 1 25.12.2026 -
Ammar Ramadan DAC Dunajska Streda Ativo 121 / 115 40% 3 24.12.2026 -
Rocco Vata Watford Ativo 117 / 134 40% 1 23.12.2026 -
Victor Torp Coventry City Ativo 133 / 131 40% 1 22.12.2026 -
Aidan Harris Newcastle United Ativo 75 / 85 40% 1 20.12.2026 -
Luka Veličković Benfica Ativo 88 / 82 40% 1 20.12.2026 -
Johannes Eggestein Austria Wien Ativo 131 / 131 40% 7 18.12.2026 -
Jonás Acevedo Instituto Ativo 125 / 132 40% 2 18.12.2026 -
Armstrong Oko-Flex Levski Ativo 124 / 118 40% 1 18.12.2026 -
Ignacio Russo Tigre Ativo 120 / 135 40% 1 17.12.2026 -
Rok Zajc NK Domzale Ativo 124 / 122 40% 8 16.12.2026 -
Khari Ranson Arsenal Ativo 86 / 89 40% 4 16.12.2026 -
Yorbe Vertessen Red Bull Salzburg Ativo 129 / 122 40% 2 16.12.2026 -
Ethan Gold Sheffield United Ativo 83 / 97 40% 1 16.12.2026 -
Gonzalo Plata Dinamo Moscow Ativo 140 / 141 40% 1 15.12.2026 -
Kauã Elias Shakhtar Ativo 130 / 130 40% 1 15.12.2026 -
Jakub Badžgoň MSK Zilina Ativo 106 / 98 40% 3 13.12.2026 -
Nilson Angulo Sunderland Ativo 128 / 125 40% 3 13.12.2026 -
Alastair Graham Nottingham Forest Ativo 81 / 90 40% 1 13.12.2026 -
Samuel Adegbenro Dynamo Kyiv Ativo 115 / 131 40% 7 12.12.2026 -
Alfie McNally Oxford United Ativo 86 / 79 40% 1 11.12.2026 -
Nicolás Cordero Aldosivi Ativo 112 / 114 40% 1 09.12.2026 -
Yusuke Matsuo CSKA Moscow Ativo 132 / 128 40% 1 07.12.2026 -
Myrto Uzuni Austin FC Ativo 137 / 142 40% 3 06.12.2026 -
Ángel Correa River Plate Ativo 141 / 150 40% 1 06.12.2026 -
Owen Foster Huesca Ativo 89 / 101 40% 4 05.12.2026 -
Juan Pablo Insúa Barracas Central Ativo 89 / 92 40% 1 05.12.2026 -
Santiago Rodríguez Gimnasia y Esgrima Ativo 117 / 116 40% 1 04.12.2026 -
Karim Konaté Red Bull Salzburg Ativo 132 / 147 40% 3 01.12.2026 -
Matej Trusa DAC Dunajska Streda Ativo 114 / 112 40% 2 01.12.2026 -
Moses Cobnan Krasnodar Ativo 116 / 109 40% 1 30.11.2026 -
François Kamano Sochi Ativo 114 / 124 40% 2 28.11.2026 -
Tadeo Allende Inter Miami CF Ativo 122 / 132 40% 3 28.11.2026 Observar
Kévin Denkey FC Cincinnati Ativo 128 / 132 40% 6 27.11.2026 -
Bongokuhle Hlongwane Minnesota United FC Ativo 127 / 136 40% 3 26.11.2026 -
Rafael Navarro Colorado Rapids Ativo 134 / 118 40% 3 26.11.2026 -
Luca Langoni New England Revolution Ativo 136 / 119 40% 2 25.11.2026 -
Ibrahim Tarek Masr El Makasa Ativo 131 / 110 40% 1 23.11.2026 -
Ştefan Baiaram Universitatea Craiova Ativo 125 / 112 40% 2 21.11.2026 -
João Klauss LA Galaxy Ativo 124 / 118 40% 4 20.11.2026 -
Josey Casa-Grande Bristol City Ativo 78 / 90 40% 2 17.11.2026 -
Brayan Gil Baltika Ativo 130 / 126 40% 5 15.11.2026 -
Razvan Puscas Astra Ativo 113 / 109 40% 1 15.11.2026 -
Guilherme Houston Dynamo Ativo 123 / 114 40% 5 14.11.2026 -
Itumeleng Tau Ajax Cape Town Ativo 107 / 127 40% 1 14.11.2026 -
Veljko Birmančević Ferencvaros Ativo 139 / 142 40% 1 13.11.2026 -
Assad Al Hamlawi Universitatea Craiova Ativo 126 / 122 40% 2 12.11.2026 -
Luciano Gondou CSKA Moscow Ativo 130 / 124 40% 1 11.11.2026 -
Tamerlan Musaev CSKA Moscow Ativo 123 / 117 40% 3 09.11.2026 -
Davit Volkovi Zira Ativo 123 / 128 40% 1 08.11.2026 -
Kein Sato FC Tokyo Ativo 139 / 135 40% 4 07.11.2026 -
Adam Sallai Haladas Ativo 85 / 98 40% 1 06.11.2026 -
Juan Manuel Boselli Krasnodar Ativo 123 / 129 40% 1 06.11.2026 -
Dániel Gazdag Columbus Crew Ativo 133 / 129 40% 5 05.11.2026 -
Brian White Vancouver Whitecaps Ativo 115 / 128 40% 2 05.11.2026 -
Victor Olatunji Real Salt Lake Ativo 118 / 112 40% 2 04.11.2026 -
Tom Wooster Ceuta Ativo 80 / 76 40% 2 01.11.2026 -
Ciprian Coman Pandurii Ativo 124 / 127 40% 1 01.11.2026 -
Brandon Vázquez Austin FC Ativo 123 / 124 40% 5 31.10.2026 -
Brayan León Mamelodi Sundowns Ativo 110 / 112 40% 1 29.10.2026 -
Marcelo Torres Gimnasia La Plata Ativo 119 / 130 40% 4 28.10.2026 -
Josh Sargent Toronto FC Ativo 130 / 120 40% 3 28.10.2026 -
Duncan McGuire Houston Dynamo Ativo 124 / 123 40% 7 26.10.2026 -
Caleb Ansen Vis Pesaro Ativo 82 / 74 40% 1 25.10.2026 -
Martín D'Aurizio Eibar Ativo 87 / 99 40% 1 24.10.2026 -
Lionel Madriaga Belgrano Ativo 88 / 100 40% 1 24.10.2026 -
Denis Bouanga Los Angeles Football Club Ativo 129 / 127 40% 5 22.10.2026 -
Franko Kovačević Ferencvaros Ativo 117 / 125 40% 2 22.10.2026 -
Lewis Morgan San Diego Football Club Ativo 125 / 114 40% 2 20.10.2026 -
Manfred Ugalde Spartak Moscow Ativo 123 / 123 40% 2 18.10.2026 -
James Wright AVS Ativo 80 / 82 40% 1 17.10.2026 -
Jid Okeke Stockport County Ativo 99 / 97 40% 1 14.10.2026 -
Arjan Malić Sturm Graz Ativo 111 / 117 40% 1 14.10.2026 -
Seb Naylor Bristol City Ativo 101 / 101 40% 1 14.10.2026 -
Francisco Mongelos Sportivo Luqueno Ativo 85 / 82 40% 2 10.10.2026 -
Zac Hadi Bradford City Ativo 85 / 88 40% 1 09.10.2026 -
Duran Ferree San Diego Football Club Ativo 85 / 104 40% 1 09.10.2026 -
Timo Werner San Jose Earthquakes Ativo 135 / 119 40% 3 07.10.2026 -
Tobías Pantoja Central Norte Ativo 89 / 108 40% 1 07.10.2026 -
Domnan Panse Plateau United Ativo 86 / 89 40% 1 07.10.2026 -
Ola Brynhildsen Bodo/Glimt Ativo 120 / 134 40% 1 05.10.2026 -
Kristian Eriksen Molde Ativo 116 / 109 40% 1 03.10.2026 -
Alonso Martínez New York City Ativo 114 / 131 40% 5 02.10.2026 -
Theo Corbeanu Toronto FC Ativo 117 / 124 40% 2 01.10.2026 -
Ioannis Pittas CSKA Sofia Ativo 125 / 125 40% 1 01.10.2026 -
Florin Tănase FCSB Ativo 126 / 119 40% 1 01.10.2026 -
Facundo Di Sibio Agropecuario Argentino Ativo 85 / 98 40% 1 01.10.2026 -
Biola Sabitu Remo Stars Ativo 93 / 113 40% 3 29.09.2026 -
Agustín Cañete Banfield Ativo 87 / 82 40% 1 29.09.2026 -
Armindo Sieb Los Angeles Football Club Ativo 113 / 118 40% 2 28.09.2026 -
Lars-Jørgen Salvesen Derby County Ativo 116 / 118 40% 1 28.09.2026 -
Harry Evans Arouca Ativo 81 / 91 40% 3 27.09.2026 -
Santiago Gutiérrez New York City Ativo 80 / 85 40% 1 27.09.2026 -
Marcus Ingvartsen San Diego Football Club Ativo 119 / 130 40% 5 24.09.2026 -
Arthur Gomes Dinamo Moscow Ativo 122 / 132 40% 1 24.09.2026 -
Charlie Casper Oxford United Ativo 77 / 82 40% 1 23.09.2026 -
Ramiro Ruiz Rodríguez Atlético Tucumán Ativo 117 / 119 40% 3 19.09.2026 -
Ramahlwe Mphela Free State Stars Ativo 104 / 109 40% 1 19.09.2026 -
Emmanuel Sabbi Vancouver Whitecaps Ativo 124 / 129 40% 1 19.09.2026 -
Anderson Julio FC Dallas Ativo 123 / 112 40% 2 14.09.2026 -
Harrison Armstrong Everton Ativo 119 / 125 40% 1 14.09.2026 -
Joe Knight Stevenage Ativo 91 / 113 40% 1 14.09.2026 -
Bade Aluko Leicester City Ativo 112 / 116 40% 1 10.09.2026 -
Tyler Fletcher Manchester United Ativo 102 / 118 40% 1 10.09.2026 -
Tyler Fredricson Valladolid Ativo 99 / 115 40% 1 10.09.2026 -
Jordan Morris Seattle Sounders Ativo 126 / 125 40% 4 08.09.2026 -
David Barbona Defensa y Justicia Ativo 122 / 119 40% 1 06.09.2026 -
Maurice Malone Minnesota United FC Ativo 120 / 125 40% 2 31.08.2026 -
Dániel Sallói Toronto FC Ativo 112 / 130 40% 1 29.08.2026 -
Eryc Castillo Alianza Lima Ativo 116 / 118 40% 1 29.08.2026 -
Peter Christiansen Viking Ativo 121 / 110 40% 2 28.08.2026 -
Pep Biel Charlotte Football Club Ativo 126 / 131 40% 1 28.08.2026 -
Tai Baribo DC United Ativo 116 / 126 40% 1 26.08.2026 -
Federico Girotti Alianza Lima Ativo 129 / 130 40% 1 26.08.2026 -
Jeremy Ebobisse Los Angeles Football Club Ativo 122 / 129 40% 1 21.08.2026 -
Alan Cantero Alianza Lima Ativo 119 / 128 40% 2 20.08.2026 -
Taisei Miyashiro Seattle Sounders Ativo 123 / 134 40% 4 17.08.2026 -
Nəriman Axundzadə Columbus Crew Ativo 119 / 132 40% 1 15.08.2026 -
Kelvin Yeboah Minnesota United FC Ativo 132 / 125 40% 2 14.08.2026 -
Camilo Durán Bloemfontein Celtic Ativo 107 / 137 40% 1 12.08.2026 -
Indiana Vassilev Philadelphia Union Ativo 117 / 112 40% 2 11.08.2026 -
Rhian Brewster Derby County Ativo 112 / 111 40% 3 10.08.2026 -
Louis Munteanu DC United Ativo 127 / 124 40% 1 06.08.2026 -
Jonatan Torres Cerro Porteno Ativo 117 / 127 40% 1 06.08.2026 -
Maurits Kjærgaard Red Bull Salzburg Ativo 131 / 135 40% 1 04.08.2026 -
Alex Valera Universitario Ativo 129 / 137 40% 1 04.08.2026 -
Sebastián Ferreira Olimpia Ativo 126 / 115 40% 1 03.08.2026 -
Juan Otero Gijón Ativo 125 / 136 40% 1 01.08.2026 -
Xavier Biscayzacú Defensor Sporting Ativo 120 / 138 40% 1 01.08.2026 -